Time;durP1;ratioP1;P1;durP2;ratioP2;P2;SDS_P1;SDS_P2;PMS_P1;PMS_P2;Temp;Humidity;BMP_temperature;BMP_pressure;BME280_temperature;BME280_humidity;BME280_pressure;Samples;Min_cycle;Max_cycle;Signal;HPM_P1;HPM_P2
2022/01/12 00:01:41;;;;;;;41.20;15.05;;;;;;;;;;4937859;29;20030;-72
2022/01/12 00:04:08;;;;;;;42.80;14.95;;;;;;;;;;4936427;29;20102;-74
2022/01/12 00:06:34;;;;;;;36.85;13.43;;;;;;;;;;4937735;29;20465;-73
2022/01/12 00:09:05;;;;;;;42.75;14.40;;;;;;;;;;4938045;29;20051;-74
2022/01/12 00:11:33;;;;;;;34.08;12.50;;;;;;;;;;4921517;29;20107;-74
2022/01/12 00:13:59;;;;;;;40.17;14.88;;;;;;;;;;4937654;29;20476;-74
2022/01/12 00:16:25;;;;;;;44.25;14.80;;;;;;;;;;4937650;29;20111;-74
2022/01/12 00:18:52;;;;;;;46.08;15.05;;;;;;;;;;4938107;29;20039;-74
2022/01/12 00:21:18;;;;;;;47.42;15.98;;;;;;;;;;4936065;29;20500;-72
2022/01/12 00:23:44;;;;;;;43.30;16.08;;;;;;;;;;4937405;29;20139;-75
2022/01/12 00:26:24;;;;;;;55.13;17.25;;;;;;;;;;4937717;29;20054;-75
2022/01/12 00:34:21;;;;;;;44.92;16.10;;;;;;;;;;4937300;29;20074;-75
2022/01/12 00:36:48;;;;;;;48.20;17.95;;;;;;;;;;4937223;29;20035;-73
2022/01/12 00:39:15;;;;;;;56.03;18.15;;;;;;;;;;4937437;29;20030;-74
2022/01/12 00:41:41;;;;;;;51.72;16.98;;;;;;;;;;4937742;29;20053;-74
2022/01/12 00:44:10;;;;;;;60.65;18.13;;;;;;;;;;4937597;29;20031;-74
2022/01/12 00:46:37;;;;;;;58.92;18.08;;;;;;;;;;4935846;29;20066;-75
2022/01/12 00:49:03;;;;;;;56.03;17.98;;;;;;;;;;4937119;29;20115;-74
2022/01/12 00:51:32;;;;;;;56.25;19.20;;;;;;;;;;4935730;29;20039;-75
2022/01/12 00:53:59;;;;;;;56.22;19.92;;;;;;;;;;4935894;29;20026;-75
2022/01/12 00:56:25;;;;;;;49.10;18.65;;;;;;;;;;4935840;29;20035;-75
2022/01/12 00:58:52;;;;;;;52.97;19.25;;;;;;;;;;4937354;29;20028;-74
2022/01/12 01:01:19;;;;;;;61.45;19.83;;;;;;;;;;4937659;29;20028;-75
2022/01/12 01:03:46;;;;;;;64.18;20.08;;;;;;;;;;4935685;29;20046;-76
2022/01/12 01:06:13;;;;;;;67.32;20.48;;;;;;;;;;4936370;29;20027;-75
2022/01/12 01:08:39;;;;;;;52.53;17.75;;;;;;;;;;4936982;29;20038;-74
2022/01/12 01:11:06;;;;;;;57.17;20.25;;;;;;;;;;4938889;29;20058;-76
2022/01/12 01:13:43;;;;;;;51.95;18.92;;;;;;;;;;4937953;29;20028;-73
2022/01/12 01:16:17;;;;;;;47.60;16.65;;;;;;;;;;4920760;29;20055;-76
2022/01/12 01:26:59;;;;;;;56.03;19.20;;;;;;;;;;4936668;29;20151;-74
2022/01/12 01:29:25;;;;;;;51.83;19.48;;;;;;;;;;4936318;29;20031;-74
2022/01/12 01:31:52;;;;;;;63.08;19.52;;;;;;;;;;4936650;29;20030;-74
2022/01/12 01:34:18;;;;;;;53.13;18.45;;;;;;;;;;4936278;29;20103;-74
2022/01/12 01:36:47;;;;;;;45.15;17.23;;;;;;;;;;4936279;29;20032;-76
2022/01/12 01:39:16;;;;;;;56.33;19.85;;;;;;;;;;4920019;29;20035;-74
2022/01/12 01:41:47;;;;;;;45.17;17.30;;;;;;;;;;4919232;29;20027;-74
2022/01/12 01:54:57;;;;;;;47.20;16.33;;;;;;;;;;4936513;29;20046;-73
2022/01/12 01:57:24;;;;;;;48.58;16.45;;;;;;;;;;4936045;29;20032;-74
2022/01/12 01:59:51;;;;;;;52.33;17.83;;;;;;;;;;4936409;29;20103;-75
2022/01/12 02:02:17;;;;;;;38.17;13.35;;;;;;;;;;4936226;29;20042;-71
2022/01/12 02:04:43;;;;;;;53.42;18.27;;;;;;;;;;4936066;29;20035;-74
2022/01/12 02:07:10;;;;;;;46.75;17.45;;;;;;;;;;4936688;29;20457;-73
2022/01/12 02:09:37;;;;;;;52.40;17.83;;;;;;;;;;4935941;29;20036;-75
2022/01/12 02:12:03;;;;;;;48.67;15.85;;;;;;;;;;4935939;29;20036;-74
2022/01/12 02:14:30;;;;;;;49.50;16.05;;;;;;;;;;4936071;29;20118;-75
2022/01/12 02:17:05;;;;;;;45.47;14.50;;;;;;;;;;4918891;29;20038;-75
2022/01/12 02:36:28;;;;;;;35.63;13.05;;;;;;;;;;4939848;29;20551;-74
2022/01/12 02:41:40;;;;;;;45.35;13.95;;;;;;;;;;4939573;29;20367;-75
2022/01/12 02:54:50;;;;;;;48.67;15.68;;;;;;;;;;4939134;29;20028;-70
2022/01/12 02:57:17;;;;;;;45.28;14.52;;;;;;;;;;4922022;29;20038;-75
2022/01/12 03:02:29;;;;;;;51.25;17.27;;;;;;;;;;4939804;29;20487;-75
2022/01/12 03:05:22;;;;;;;43.50;14.30;;;;;;;;;;4921878;29;20075;-75
2022/01/12 03:07:48;;;;;;;43.25;15.90;;;;;;;;;;4939093;29;20055;-75
2022/01/12 03:10:15;;;;;;;46.65;16.35;;;;;;;;;;4921682;29;20031;-75
2022/01/12 03:12:43;;;;;;;46.63;16.98;;;;;;;;;;4921671;29;20473;-75
2022/01/12 03:15:09;;;;;;;52.80;19.45;;;;;;;;;;4938746;29;20062;-75
2022/01/12 03:17:36;;;;;;;44.17;16.02;;;;;;;;;;4938667;29;20035;-75
2022/01/12 03:20:04;;;;;;;51.60;16.40;;;;;;;;;;4938464;29;20485;-75
2022/01/12 03:22:31;;;;;;;52.22;17.52;;;;;;;;;;4921493;29;20027;-75
2022/01/12 03:24:57;;;;;;;57.85;18.83;;;;;;;;;;4938814;29;20050;-74
2022/01/12 03:27:25;;;;;;;47.42;16.67;;;;;;;;;;4938612;29;20071;-75
2022/01/12 03:29:55;;;;;;;44.50;16.67;;;;;;;;;;4921463;29;20032;-75
2022/01/12 03:32:30;;;;;;;51.63;17.58;;;;;;;;;;4938575;29;20031;-75
2022/01/12 03:35:07;;;;;;;49.03;16.63;;;;;;;;;;4921626;29;20032;-75
2022/01/12 03:37:42;;;;;;;52.25;16.90;;;;;;;;;;4921348;29;20473;-74
2022/01/12 03:40:09;;;;;;;47.35;16.67;;;;;;;;;;4920856;29;20027;-74
2022/01/12 03:42:36;;;;;;;43.25;14.05;;;;;;;;;;4938153;29;20039;-75
2022/01/12 03:45:02;;;;;;;43.50;17.08;;;;;;;;;;4938532;29;20028;-74
2022/01/12 03:47:28;;;;;;;50.53;15.27;;;;;;;;;;4921149;29;20050;-73
2022/01/12 03:49:55;;;;;;;52.00;17.60;;;;;;;;;;4938044;29;20054;-75
2022/01/12 03:52:21;;;;;;;41.85;13.73;;;;;;;;;;4938049;29;20388;-75
2022/01/12 03:54:47;;;;;;;44.03;15.52;;;;;;;;;;4938342;29;20035;-75
2022/01/12 03:57:14;;;;;;;54.90;16.55;;;;;;;;;;4938258;29;20020;-73
2022/01/12 03:59:40;;;;;;;49.97;15.93;;;;;;;;;;4937771;29;20070;-75
2022/01/12 04:02:06;;;;;;;47.70;15.32;;;;;;;;;;4937809;29;20065;-76
2022/01/12 04:04:42;;;;;;;54.45;16.65;;;;;;;;;;4938958;29;20448;-75
2022/01/12 04:09:53;;;;;;;44.33;15.52;;;;;;;;;;4923857;29;20034;-75
2022/01/12 04:12:19;;;;;;;42.08;15.10;;;;;;;;;;4937905;29;20023;-75
2022/01/12 04:14:46;;;;;;;44.17;14.60;;;;;;;;;;4938290;29;20051;-71
2022/01/12 04:17:12;;;;;;;39.40;13.70;;;;;;;;;;4937793;29;20056;-75
2022/01/12 04:19:38;;;;;;;38.22;13.88;;;;;;;;;;4920639;29;20099;-75
2022/01/12 04:23:16;;;;;;;47.47;13.07;;;;;;;;;;4920385;29;20047;-75
2022/01/12 04:24:54;;;;;;;40.08;14.35;;;;;;;;;;4937381;29;20048;-74
2022/01/12 04:27:21;;;;;;;39.55;14.00;;;;;;;;;;4937659;29;20491;-75
2022/01/12 04:29:47;;;;;;;41.10;14.48;;;;;;;;;;4940398;29;20040;-75
2022/01/12 04:32:13;;;;;;;38.55;12.85;;;;;;;;;;4951337;29;20027;-74
2022/01/12 04:34:40;;;;;;;32.78;12.23;;;;;;;;;;4920453;29;20028;-75
2022/01/12 04:37:06;;;;;;;35.85;12.48;;;;;;;;;;4937402;29;20030;-75
2022/01/12 04:39:33;;;;;;;39.13;13.27;;;;;;;;;;4937061;29;20031;-75
2022/01/12 04:41:59;;;;;;;40.25;13.70;;;;;;;;;;4937153;29;20028;-75
2022/01/12 04:44:25;;;;;;;31.50;11.85;;;;;;;;;;4936938;29;20036;-74
2022/01/12 04:47:04;;;;;;;36.28;12.88;;;;;;;;;;4920098;29;20384;-74
2022/01/12 04:49:47;;;;;;;33.03;11.98;;;;;;;;;;4937294;29;20192;-75
2022/01/12 04:52:17;;;;;;;30.10;9.68;;;;;;;;;;4919415;29;20024;-74
2022/01/12 04:54:44;;;;;;;20.83;7.43;;;;;;;;;;4919954;29;20034;-75
2022/01/12 04:57:10;;;;;;;28.77;10.10;;;;;;;;;;4919925;29;20032;-74
2022/01/12 04:59:43;;;;;;;19.75;8.88;;;;;;;;;;4919811;29;20054;-75
2022/01/12 05:06:24;;;;;;;21.02;8.15;;;;;;;;;;4919346;29;20027;-75
2022/01/12 05:07:56;;;;;;;29.95;11.60;;;;;;;;;;4937547;29;20103;-75
2022/01/12 05:12:54;;;;;;;30.17;10.43;;;;;;;;;;4936606;29;20448;-74
2022/01/12 05:15:34;;;;;;;28.77;9.18;;;;;;;;;;4936603;29;20024;-75
2022/01/12 05:18:02;;;;;;;33.30;11.23;;;;;;;;;;4919564;29;20035;-75
2022/01/12 05:20:29;;;;;;;27.88;10.55;;;;;;;;;;4936272;29;20043;-75
2022/01/12 05:22:55;;;;;;;27.50;11.23;;;;;;;;;;4936623;29;20039;-74
2022/01/12 05:25:22;;;;;;;27.33;10.73;;;;;;;;;;4936492;29;20030;-71
2022/01/12 05:27:48;;;;;;;34.63;11.60;;;;;;;;;;4936387;29;20030;-73
2022/01/12 05:30:15;;;;;;;32.13;10.60;;;;;;;;;;4919326;29;20176;-73
2022/01/12 05:32:42;;;;;;;27.65;10.70;;;;;;;;;;4919287;29;20063;-73
2022/01/12 05:35:10;;;;;;;30.42;11.13;;;;;;;;;;4919229;29;20039;-71
2022/01/12 05:37:36;;;;;;;31.35;10.68;;;;;;;;;;4936257;29;20036;-74
2022/01/12 05:40:04;;;;;;;26.42;10.98;;;;;;;;;;4919179;29;20020;-74
2022/01/12 05:42:30;;;;;;;24.90;9.45;;;;;;;;;;4919101;29;20036;-73
2022/01/12 05:44:56;;;;;;;32.55;10.73;;;;;;;;;;4919128;29;20031;-73
2022/01/12 05:49:34;;;;;;;29.80;10.38;;;;;;;;;;4936107;29;20039;-72
2022/01/12 05:50:28;;;;;;;27.55;9.98;;;;;;;;;;4936468;29;20481;-73
2022/01/12 05:52:55;;;;;;;24.20;9.50;;;;;;;;;;4919057;29;20032;-73
2022/01/12 05:55:21;;;;;;;29.27;10.07;;;;;;;;;;4919118;29;20051;-74
2022/01/12 05:57:48;;;;;;;26.92;9.82;;;;;;;;;;4936153;29;20035;-75
2022/01/12 06:00:15;;;;;;;26.45;9.88;;;;;;;;;;4936076;29;20016;-74
2022/01/12 06:02:41;;;;;;;23.98;9.30;;;;;;;;;;4920587;29;20477;-73
2022/01/12 06:05:08;;;;;;;20.35;8.18;;;;;;;;;;4923007;29;20031;-73
2022/01/12 06:07:34;;;;;;;20.90;7.60;;;;;;;;;;4922980;29;20020;-74
2022/01/12 06:10:01;;;;;;;30.83;10.95;;;;;;;;;;4940637;29;20050;-75
2022/01/12 06:12:27;;;;;;;25.65;9.73;;;;;;;;;;4941521;29;20036;-73
2022/01/12 06:14:53;;;;;;;24.58;9.20;;;;;;;;;;4956182;29;20034;-73
2022/01/12 06:17:19;;;;;;;23.63;9.82;;;;;;;;;;4940008;29;20024;-74
2022/01/12 06:19:45;;;;;;;24.95;8.95;;;;;;;;;;4922232;29;20118;-68
2022/01/12 06:22:11;;;;;;;25.60;9.45;;;;;;;;;;4916270;29;20027;-70
2022/01/12 06:24:37;;;;;;;28.70;10.80;;;;;;;;;;4921425;29;20032;-70
2022/01/12 06:27:04;;;;;;;30.60;10.70;;;;;;;;;;4939546;29;20032;-70
2022/01/12 06:32:10;;;;;;;28.83;9.65;;;;;;;;;;4940061;29;20114;-69
2022/01/12 06:34:36;;;;;;;30.38;12.43;;;;;;;;;;4922283;29;20095;-69
2022/01/12 06:37:02;;;;;;;39.10;14.55;;;;;;;;;;4922197;29;20020;-70
2022/01/12 06:39:28;;;;;;;33.35;13.10;;;;;;;;;;4922025;29;20126;-71
2022/01/12 06:41:57;;;;;;;32.45;11.05;;;;;;;;;;4904140;29;20032;-71
2022/01/12 06:44:25;;;;;;;31.98;10.82;;;;;;;;;;4903102;29;20044;-72
2022/01/12 06:46:52;;;;;;;26.80;11.18;;;;;;;;;;4903198;29;20066;-70
2022/01/12 06:49:18;;;;;;;35.28;13.77;;;;;;;;;;4903148;29;20032;-72
2022/01/12 06:51:45;;;;;;;35.38;13.38;;;;;;;;;;4903052;29;20075;-68
2022/01/12 06:54:12;;;;;;;28.80;11.48;;;;;;;;;;4903084;29;20056;-72
2022/01/12 06:56:38;;;;;;;37.20;12.02;;;;;;;;;;4903018;29;20032;-71
2022/01/12 06:59:04;;;;;;;33.03;11.20;;;;;;;;;;4919997;29;20056;-70
2022/01/12 07:01:31;;;;;;;34.45;13.27;;;;;;;;;;4902767;29;20379;-72
2022/01/12 07:03:57;;;;;;;34.22;11.70;;;;;;;;;;4919827;29;20047;-70
2022/01/12 07:06:23;;;;;;;32.60;11.63;;;;;;;;;;4902815;29;20398;-70
2022/01/12 07:08:50;;;;;;;31.73;12.00;;;;;;;;;;4902838;29;20024;-71
2022/01/12 07:11:16;;;;;;;28.67;9.60;;;;;;;;;;4902803;29;20032;-70
2022/01/12 07:13:42;;;;;;;30.17;11.43;;;;;;;;;;4901850;29;20071;-73
2022/01/12 07:16:08;;;;;;;36.67;12.60;;;;;;;;;;4902703;29;20028;-70
2022/01/12 07:18:34;;;;;;;32.92;12.57;;;;;;;;;;4921514;29;20417;-72
2022/01/12 07:21:01;;;;;;;30.63;11.38;;;;;;;;;;4928550;29;20055;-70
2022/01/12 07:23:27;;;;;;;37.80;12.98;;;;;;;;;;4937088;29;20118;-68
2022/01/12 07:25:54;;;;;;;35.78;12.18;;;;;;;;;;4937201;29;20062;-68
2022/01/12 07:28:20;;;;;;;32.35;13.23;;;;;;;;;;4937202;29;20028;-70
2022/01/12 07:30:47;;;;;;;33.75;12.13;;;;;;;;;;4937161;29;20027;-72
2022/01/12 07:33:13;;;;;;;32.78;12.00;;;;;;;;;;4938462;29;20107;-72
2022/01/12 07:35:40;;;;;;;36.00;12.35;;;;;;;;;;4936924;29;20405;-73
2022/01/12 07:38:06;;;;;;;31.20;12.07;;;;;;;;;;4936983;29;20031;-71
2022/01/12 07:40:35;;;;;;;39.90;12.98;;;;;;;;;;4938218;29;20129;-71
2022/01/12 07:43:02;;;;;;;34.42;11.63;;;;;;;;;;4936871;29;20401;-71
2022/01/12 07:45:28;;;;;;;30.27;11.52;;;;;;;;;;4936748;29;20040;-72
2022/01/12 07:47:54;;;;;;;34.35;11.40;;;;;;;;;;4936846;29;20020;-70
2022/01/12 07:50:20;;;;;;;34.30;12.82;;;;;;;;;;4936814;29;20032;-72
2022/01/12 07:52:46;;;;;;;31.83;11.65;;;;;;;;;;4938248;29;20043;-71
2022/01/12 07:55:12;;;;;;;32.67;12.27;;;;;;;;;;4936739;29;20568;-68
2022/01/12 07:57:41;;;;;;;28.67;11.35;;;;;;;;;;4936578;29;20095;-73
2022/01/12 08:00:07;;;;;;;26.73;11.02;;;;;;;;;;4936595;29;20032;-73
2022/01/12 08:02:34;;;;;;;30.35;13.40;;;;;;;;;;4936450;29;20058;-72
2022/01/12 08:05:01;;;;;;;30.92;12.98;;;;;;;;;;4936766;29;20460;-72
2022/01/12 08:07:27;;;;;;;33.40;13.57;;;;;;;;;;4936372;29;20034;-72
2022/01/12 08:09:54;;;;;;;30.02;13.00;;;;;;;;;;4936828;29;20032;-71
2022/01/12 08:12:21;;;;;;;34.08;14.50;;;;;;;;;;4935706;29;20024;-72
2022/01/12 08:14:47;;;;;;;32.83;12.85;;;;;;;;;;4936298;29;20027;-69
2022/01/12 08:17:13;;;;;;;35.50;14.15;;;;;;;;;;4937471;29;20032;-72
2022/01/12 08:19:39;;;;;;;30.08;12.70;;;;;;;;;;4937651;29;20031;-73
2022/01/12 08:22:05;;;;;;;33.75;14.18;;;;;;;;;;4936352;29;20054;-69
2022/01/12 08:24:31;;;;;;;26.85;12.32;;;;;;;;;;4936917;29;20043;-73
2022/01/12 08:26:58;;;;;;;29.95;12.25;;;;;;;;;;4934091;29;20036;-69
2022/01/12 08:29:26;;;;;;;29.33;11.63;;;;;;;;;;4935897;29;20024;-68
2022/01/12 08:31:52;;;;;;;26.15;10.65;;;;;;;;;;4935958;29;20028;-70
2022/01/12 08:34:19;;;;;;;27.10;10.63;;;;;;;;;;4918823;29;20024;-72
2022/01/12 08:36:45;;;;;;;24.55;9.52;;;;;;;;;;4934592;29;20115;-69
2022/01/12 08:39:11;;;;;;;21.02;9.15;;;;;;;;;;4934596;29;20020;-69
2022/01/12 08:41:37;;;;;;;28.63;8.07;;;;;;;;;;4934874;29;20037;-71
2022/01/12 08:44:07;;;;;;;21.40;8.35;;;;;;;;;;4936320;29;20393;-69
2022/01/12 08:46:34;;;;;;;18.65;6.03;;;;;;;;;;4939580;29;20473;-72
2022/01/12 08:49:00;;;;;;;22.63;8.05;;;;;;;;;;4936028;29;20031;-73
2022/01/12 08:51:26;;;;;;;17.63;6.80;;;;;;;;;;4937008;29;20031;-73
2022/01/12 08:53:52;;;;;;;25.27;8.13;;;;;;;;;;4936882;29;20041;-72
2022/01/12 08:56:19;;;;;;;15.98;5.82;;;;;;;;;;4937115;29;20032;-69
2022/01/12 08:58:46;;;;;;;20.08;6.95;;;;;;;;;;4936938;29;20035;-72
2022/01/12 09:01:12;;;;;;;17.02;6.07;;;;;;;;;;4935565;29;20031;-70
2022/01/12 09:03:39;;;;;;;22.92;7.10;;;;;;;;;;4936539;29;20114;-71
2022/01/12 09:06:05;;;;;;;17.98;6.43;;;;;;;;;;4936743;29;20024;-69
2022/01/12 09:08:31;;;;;;;22.83;8.82;;;;;;;;;;4936952;29;20090;-70
2022/01/12 09:10:57;;;;;;;13.20;5.70;;;;;;;;;;4935415;29;20028;-69
2022/01/12 09:13:24;;;;;;;13.85;5.72;;;;;;;;;;4935279;29;20130;-70
2022/01/12 09:15:50;;;;;;;23.90;7.80;;;;;;;;;;4936548;29;20024;-69
2022/01/12 09:18:18;;;;;;;20.73;7.35;;;;;;;;;;4935080;29;20036;-69
2022/01/12 09:20:44;;;;;;;15.75;6.63;;;;;;;;;;4934968;29;20051;-70
2022/01/12 09:23:10;;;;;;;16.33;6.93;;;;;;;;;;4936330;29;20063;-70
2022/01/12 09:25:39;;;;;;;21.30;7.57;;;;;;;;;;4935066;29;20493;-70
2022/01/12 09:28:06;;;;;;;20.55;6.70;;;;;;;;;;4935107;29;20499;-69
2022/01/12 09:30:32;;;;;;;11.40;4.55;;;;;;;;;;4935109;29;20024;-70
2022/01/12 09:32:59;;;;;;;16.55;6.88;;;;;;;;;;4935051;29;20023;-71
2022/01/12 09:35:26;;;;;;;20.38;7.43;;;;;;;;;;4934924;29;20111;-72
2022/01/12 09:37:52;;;;;;;18.27;7.28;;;;;;;;;;4935758;29;20027;-70
2022/01/12 09:40:18;;;;;;;18.15;8.50;;;;;;;;;;4936197;29;20039;-70
2022/01/12 09:42:46;;;;;;;19.05;7.88;;;;;;;;;;4935260;29;20031;-72
2022/01/12 09:45:15;;;;;;;17.83;8.10;;;;;;;;;;4936185;29;20066;-71
2022/01/12 09:47:42;;;;;;;19.35;8.20;;;;;;;;;;4936105;29;20468;-70
2022/01/12 09:50:09;;;;;;;19.17;8.02;;;;;;;;;;4936158;29;20034;-73
2022/01/12 09:52:36;;;;;;;20.00;7.22;;;;;;;;;;4934903;29;20051;-72
2022/01/12 09:55:02;;;;;;;21.50;7.43;;;;;;;;;;4934981;29;20381;-70
2022/01/12 09:57:28;;;;;;;17.15;7.72;;;;;;;;;;4919006;29;20369;-71
2022/01/12 09:59:54;;;;;;;17.67;8.15;;;;;;;;;;4934759;29;20031;-73
2022/01/12 10:02:21;;;;;;;18.40;7.28;;;;;;;;;;4934699;29;20039;-71
2022/01/12 10:04:47;;;;;;;21.38;7.40;;;;;;;;;;4934744;29;20035;-70
2022/01/12 10:07:14;;;;;;;18.88;7.85;;;;;;;;;;4935964;29;20534;-72
2022/01/12 10:09:44;;;;;;;20.23;8.45;;;;;;;;;;4934565;29;20031;-71
2022/01/12 10:12:13;;;;;;;20.75;7.25;;;;;;;;;;4934706;29;20119;-71
2022/01/12 10:14:40;;;;;;;12.30;5.05;;;;;;;;;;4935857;29;20075;-69
2022/01/12 10:17:06;;;;;;;18.33;6.20;;;;;;;;;;4933212;29;20039;-69
2022/01/12 10:19:33;;;;;;;19.20;7.00;;;;;;;;;;4934647;29;20038;-69
2022/01/12 10:22:00;;;;;;;16.55;5.93;;;;;;;;;;4935795;29;20086;-70
2022/01/12 10:24:27;;;;;;;16.65;6.03;;;;;;;;;;4918659;29;20040;-70
2022/01/12 10:26:55;;;;;;;20.00;5.75;;;;;;;;;;4934480;29;20028;-70
2022/01/12 10:29:28;;;;;;;13.55;5.65;;;;;;;;;;4918490;29;20400;-69
2022/01/12 10:31:54;;;;;;;;;;;;;;;;;;4936188;29;20032;-71
2022/01/12 10:34:25;;;;;;;11.98;5.07;;;;;;;;;;4918685;29;19907;-73
2022/01/12 10:36:51;;;;;;;13.60;5.72;;;;;;;;;;4918638;29;20039;-73
2022/01/12 10:39:18;;;;;;;17.90;6.38;;;;;;;;;;4940628;29;20044;-69
2022/01/12 10:41:59;;;;;;;18.10;6.40;;;;;;;;;;4919182;29;20118;-70
2022/01/12 10:44:29;;;;;;;13.60;6.10;;;;;;;;;;4918497;29;20497;-73
2022/01/12 10:47:07;;;;;;;14.98;6.00;;;;;;;;;;4918546;29;20024;-69
2022/01/12 10:49:36;;;;;;;15.80;5.85;;;;;;;;;;4917467;29;20039;-69
2022/01/12 10:52:03;;;;;;;16.77;5.70;;;;;;;;;;4919970;29;20031;-72
2022/01/12 10:54:29;;;;;;;14.93;6.05;;;;;;;;;;4920364;29;20033;-69
2022/01/12 10:56:55;;;;;;;13.48;6.43;;;;;;;;;;4903074;29;20028;-70
2022/01/12 10:59:22;;;;;;;14.10;5.55;;;;;;;;;;4902986;29;20044;-71
2022/01/12 11:01:48;;;;;;;14.38;5.72;;;;;;;;;;4902860;29;20075;-70
2022/01/12 11:04:14;;;;;;;12.70;5.90;;;;;;;;;;4902843;29;20512;-70
2022/01/12 11:06:41;;;;;;;14.15;6.80;;;;;;;;;;4902877;29;20028;-70
2022/01/12 11:09:07;;;;;;;13.88;5.65;;;;;;;;;;4902818;29;20518;-71
2022/01/12 11:11:34;;;;;;;16.55;6.90;;;;;;;;;;4902705;29;20168;-72
2022/01/12 11:14:01;;;;;;;15.40;6.60;;;;;;;;;;4903009;29;20185;-72
2022/01/12 11:16:28;;;;;;;15.75;6.80;;;;;;;;;;4905095;29;20123;-71
2022/01/12 11:18:55;;;;;;;20.73;7.00;;;;;;;;;;4938638;29;20020;-69
2022/01/12 11:21:22;;;;;;;17.75;7.65;;;;;;;;;;4931249;29;20123;-70
2022/01/12 11:23:50;;;;;;;14.10;6.80;;;;;;;;;;4937161;29;20046;-72
2022/01/12 11:26:17;;;;;;;16.48;7.10;;;;;;;;;;4937076;29;20058;-73
2022/01/12 11:28:44;;;;;;;16.92;8.02;;;;;;;;;;4937190;29;20032;-74
2022/01/12 11:31:12;;;;;;;17.83;7.80;;;;;;;;;;4936580;29;20028;-72
2022/01/12 11:33:42;;;;;;;21.65;8.05;;;;;;;;;;4936832;29;20576;-74
2022/01/12 11:36:13;;;;;;;14.77;6.85;;;;;;;;;;4938390;29;20058;-73
2022/01/12 11:38:40;;;;;;;18.40;7.82;;;;;;;;;;4937029;29;20024;-72
2022/01/12 11:41:09;;;;;;;15.57;7.05;;;;;;;;;;4937252;29;20032;-74
2022/01/12 11:43:42;;;;;;;15.98;7.78;;;;;;;;;;4936856;29;20066;-74
2022/01/12 11:46:16;;;;;;;14.18;6.93;;;;;;;;;;4936992;29;20028;-72
2022/01/12 11:48:46;;;;;;;18.40;6.80;;;;;;;;;;4938164;29;20035;-74
2022/01/12 11:51:13;;;;;;;17.65;6.70;;;;;;;;;;4936837;29;20055;-74
2022/01/12 11:53:46;;;;;;;13.93;6.65;;;;;;;;;;4937982;29;20031;-73
2022/01/12 11:56:14;;;;;;;15.00;7.05;;;;;;;;;;4938088;29;20031;-73
2022/01/12 11:58:52;;;;;;;15.35;7.50;;;;;;;;;;4937959;29;20389;-73
2022/01/12 12:01:18;;;;;;;16.27;7.40;;;;;;;;;;4937700;29;20024;-72
2022/01/12 12:04:01;;;;;;;16.80;7.25;;;;;;;;;;4936451;29;20043;-71
2022/01/12 12:06:27;;;;;;;16.63;7.47;;;;;;;;;;4936532;29;20028;-74
2022/01/12 12:08:58;;;;;;;14.77;7.22;;;;;;;;;;4937802;29;20027;-72
2022/01/12 12:11:28;;;;;;;16.65;7.95;;;;;;;;;;4936465;29;20039;-72
2022/01/12 12:13:59;;;;;;;18.80;7.47;;;;;;;;;;4938105;29;20028;-74
2022/01/12 12:16:25;;;;;;;18.30;7.75;;;;;;;;;;4937907;29;20454;-73
2022/01/12 12:18:53;;;;;;;16.35;7.50;;;;;;;;;;4937571;29;20034;-73
2022/01/12 12:21:19;;;;;;;20.58;7.32;;;;;;;;;;4937231;29;20504;-72
2022/01/12 12:23:46;;;;;;;20.65;7.60;;;;;;;;;;4919251;29;20050;-72
2022/01/12 12:26:13;;;;;;;18.23;7.15;;;;;;;;;;4936970;29;20380;-74
2022/01/12 12:28:39;;;;;;;18.90;7.78;;;;;;;;;;4920313;29;20042;-74
2022/01/12 12:31:06;;;;;;;20.90;8.10;;;;;;;;;;4920287;29;20050;-74
2022/01/12 12:33:34;;;;;;;19.00;7.60;;;;;;;;;;4951032;29;20031;-72
2022/01/12 12:36:05;;;;;;;15.38;7.32;;;;;;;;;;4937219;29;20019;-74
2022/01/12 12:38:31;;;;;;;15.57;6.97;;;;;;;;;;4937274;29;20066;-73
2022/01/12 12:40:58;;;;;;;18.92;7.50;;;;;;;;;;4937164;29;20027;-74
2022/01/12 12:43:26;;;;;;;14.50;7.10;;;;;;;;;;4919930;29;20453;-72
2022/01/12 12:46:05;;;;;;;23.00;8.68;;;;;;;;;;4937063;29;20524;-74
2022/01/12 12:48:32;;;;;;;20.88;9.00;;;;;;;;;;4919994;29;20031;-73
2022/01/12 12:51:02;;;;;;;19.92;9.10;;;;;;;;;;4937321;29;20059;-73
2022/01/12 12:53:33;;;;;;;26.23;10.80;;;;;;;;;;4937056;29;20036;-72
2022/01/12 12:56:00;;;;;;;21.27;10.57;;;;;;;;;;4937079;29;20030;-71
2022/01/12 12:58:27;;;;;;;24.55;11.43;;;;;;;;;;4936999;29;20034;-71
2022/01/12 13:00:53;;;;;;;25.25;11.13;;;;;;;;;;4936971;29;20031;-73
2022/01/12 13:03:20;;;;;;;28.40;11.50;;;;;;;;;;4936694;29;20031;-72
2022/01/12 13:05:46;;;;;;;26.02;11.68;;;;;;;;;;4936709;29;20028;-73
2022/01/12 13:08:13;;;;;;;24.35;11.20;;;;;;;;;;4919652;29;20032;-72
2022/01/12 13:10:39;;;;;;;26.30;11.38;;;;;;;;;;4936596;29;20106;-73
2022/01/12 13:13:06;;;;;;;25.25;11.23;;;;;;;;;;4918788;29;20028;-72
2022/01/12 13:15:39;;;;;;;23.23;10.73;;;;;;;;;;4936239;29;20027;-71
2022/01/12 13:18:07;;;;;;;24.65;11.10;;;;;;;;;;4918024;29;20055;-71
2022/01/12 13:23:27;;;;;;;25.17;11.13;;;;;;;;;;4936640;29;20049;-71
2022/01/12 13:25:54;;;;;;;22.25;9.05;;;;;;;;;;4936393;29;20027;-70
2022/01/12 13:28:20;;;;;;;24.95;11.50;;;;;;;;;;4936301;29;20035;-70
2022/01/12 13:31:07;;;;;;;21.80;9.40;;;;;;;;;;4936331;29;20172;-72
2022/01/12 13:33:34;;;;;;;23.55;9.93;;;;;;;;;;4936049;29;20078;-73
2022/01/12 13:36:18;;;;;;;26.35;10.50;;;;;;;;;;4936661;29;20449;-71
2022/01/12 13:38:46;;;;;;;22.45;9.57;;;;;;;;;;4936276;29;20063;-71
2022/01/12 13:41:15;;;;;;;22.40;9.52;;;;;;;;;;4919207;29;20095;-73
2022/01/12 13:43:43;;;;;;;21.88;9.35;;;;;;;;;;4936029;29;20580;-72
2022/01/12 13:46:14;;;;;;;23.58;9.77;;;;;;;;;;4919104;29;20396;-72
2022/01/12 13:48:52;;;;;;;23.90;9.10;;;;;;;;;;4936282;29;20031;-73
2022/01/12 13:51:25;;;;;;;23.65;10.38;;;;;;;;;;4936409;29;20036;-73
2022/01/12 13:54:01;;;;;;;24.73;8.90;;;;;;;;;;4935445;29;20366;-72
2022/01/12 13:56:38;;;;;;;23.10;8.65;;;;;;;;;;4918808;29;20036;-72
2022/01/12 13:59:04;;;;;;;29.80;9.85;;;;;;;;;;4936242;29;20027;-73
2022/01/12 14:01:37;;;;;;;23.88;9.63;;;;;;;;;;4918874;29;20083;-71
2022/01/12 14:04:11;;;;;;;22.95;9.32;;;;;;;;;;4935989;29;20053;-69
2022/01/12 14:06:42;;;;;;;26.13;8.95;;;;;;;;;;4936270;29;20031;-69
2022/01/12 14:09:21;;;;;;;25.75;9.85;;;;;;;;;;4936237;29;20091;-69
2022/01/12 14:11:48;;;;;;;25.13;9.25;;;;;;;;;;4935825;29;20028;-73
2022/01/12 14:14:14;;;;;;;22.45;9.93;;;;;;;;;;4936056;29;20027;-69
2022/01/12 14:16:41;;;;;;;24.80;9.20;;;;;;;;;;4931774;29;20036;-72
2022/01/12 14:19:08;;;;;;;21.05;8.93;;;;;;;;;;4916862;29;20035;-72
2022/01/12 14:21:34;;;;;;;21.65;9.57;;;;;;;;;;4910840;29;20052;-70
2022/01/12 14:24:00;;;;;;;22.00;8.70;;;;;;;;;;4918147;29;20082;-72
2022/01/12 14:26:27;;;;;;;23.27;9.48;;;;;;;;;;4919398;29;20088;-71
2022/01/12 14:28:54;;;;;;;25.85;9.45;;;;;;;;;;4926629;29;20070;-72
2022/01/12 14:31:21;;;;;;;23.38;9.40;;;;;;;;;;4919621;29;20489;-71
2022/01/12 14:33:47;;;;;;;21.42;9.75;;;;;;;;;;4920300;29;20071;-74
2022/01/12 14:36:15;;;;;;;25.77;9.35;;;;;;;;;;4919966;29;20032;-74
2022/01/12 14:38:41;;;;;;;25.25;9.38;;;;;;;;;;4919248;29;20028;-74
2022/01/12 14:41:07;;;;;;;23.95;9.35;;;;;;;;;;4919361;29;20032;-75
2022/01/12 14:43:33;;;;;;;29.00;9.75;;;;;;;;;;4920239;29;20047;-74
2022/01/12 14:46:00;;;;;;;39.53;9.90;;;;;;;;;;4920925;29;20031;-75
2022/01/12 14:48:26;;;;;;;25.77;9.82;;;;;;;;;;4920588;29;20122;-75
2022/01/12 14:50:54;;;;;;;24.98;9.50;;;;;;;;;;4920295;29;20028;-74
2022/01/12 14:53:21;;;;;;;26.75;10.48;;;;;;;;;;4919094;29;20032;-75
2022/01/12 14:55:52;;;;;;;26.58;10.02;;;;;;;;;;4918895;29;20036;-75
2022/01/12 14:58:19;;;;;;;28.55;10.93;;;;;;;;;;4919042;29;20024;-75
2022/01/12 15:00:46;;;;;;;26.73;9.82;;;;;;;;;;4920222;29;20032;-73
2022/01/12 15:03:13;;;;;;;25.02;9.43;;;;;;;;;;4920049;29;20501;-74
2022/01/12 15:05:40;;;;;;;22.25;8.80;;;;;;;;;;4918866;29;20489;-75
2022/01/12 15:08:06;;;;;;;23.15;8.93;;;;;;;;;;4918888;29;20032;-74
2022/01/12 15:10:32;;;;;;;24.10;10.23;;;;;;;;;;4919939;29;20028;-76
2022/01/12 15:13:22;;;;;;;24.52;10.32;;;;;;;;;;4918765;29;20028;-74
2022/01/12 15:16:06;;;;;;;23.55;9.57;;;;;;;;;;4920452;29;20034;-74
2022/01/12 15:18:33;;;;;;;28.23;10.13;;;;;;;;;;4918797;29;20035;-76
2022/01/12 15:21:00;;;;;;;30.83;10.48;;;;;;;;;;4919697;29;20132;-76
2022/01/12 15:23:26;;;;;;;28.52;10.45;;;;;;;;;;4902970;29;20062;-75
2022/01/12 15:25:54;;;;;;;37.45;11.75;;;;;;;;;;4919772;29;20032;-75
2022/01/12 15:28:20;;;;;;;46.22;14.63;;;;;;;;;;4902952;29;20029;-75
2022/01/12 15:30:46;;;;;;;42.05;13.55;;;;;;;;;;4919978;29;20079;-76
2022/01/12 15:33:12;;;;;;;30.63;10.27;;;;;;;;;;4919841;29;20034;-75
2022/01/12 15:35:41;;;;;;;32.17;11.00;;;;;;;;;;4919252;29;20095;-75
2022/01/12 15:38:07;;;;;;;30.83;11.45;;;;;;;;;;4902476;29;20051;-72
2022/01/12 15:40:33;;;;;;;32.85;10.32;;;;;;;;;;4902464;29;20492;-74